Ryukaku — JD2887 — position and weather

sailwx.info

Track history (hours):
 
Tides and Currents Weather Stations Pressure Air Temp Water Temp Dewpoint Dewpoint Depression Visibility Wind Speed Wind Dir Waves Ship Positions

Ryukaku

Last reported at 2017-Nov-30 05:32 UTC. Time now 2017-Dec-18 22:36 UTC.
Position N 35°01' E 140°11'.
Warning: this ship's position is 18 days out of date.

Length 74 m; draft 4.2 m.

Type: Cargo ship. MMSI: 431000913.

Date/timePositionNaut miles runAvg speedWind from/ knotsBaromVisibWave heightAir tempDewpointWater temp
2017-Nov-30 05:32N 35°01' E 140°11'311.9
2017-Nov-30 05:16N 34°59' E 140°08'2011.6
2017-Nov-30 03:32N 34°51' E 139°46'112.0
2017-Nov-30 03:27N 34°51' E 139°44'511.7
2017-Nov-30 03:00N 34°51' E 139°38'910.8
2017-Nov-30 02:11N 34°50' E 139°27'210.9
2017-Nov-30 02:00N 34°50' E 139°25'812.1
2017-Nov-30 01:22N 34°47' E 139°16'512.4
2017-Nov-30 00:59N 34°44' E 139°12'612.4
2017-Nov-30 00:28N 34°40' E 139°05'812.9
2017-Nov-29 23:53N 34°36' E 138°58'613.0
2017-Nov-29 23:27N 34°35' E 138°51'813.0
2017-Nov-29 22:50N 34°34' E 138°41'613.6
2017-Nov-29 22:22N 34°34' E 138°33'513.7
2017-Nov-29 21:59N 34°33' E 138°27'813.0
2017-Nov-29 21:21N 34°33' E 138°17'32410.1
2017-Nov-28 13:08N 33°25' E 131°55'912.2
2017-Nov-28 12:23N 33°33' E 131°48'512.5
2017-Nov-28 12:00N 33°36' E 131°45'612.3
2017-Nov-28 11:30N 33°41' E 131°40'612.3
2017-Nov-28 11:00N 33°43' E 131°33'611.9
2017-Nov-28 10:30N 33°44' E 131°26'611.7
2017-Nov-28 10:00N 33°45' E 131°20'611.4
2017-Nov-28 09:30N 33°47' E 131°13'611.3
2017-Nov-28 09:00N 33°48' E 131°06'0 0.7
2017-Nov-28 08:29N 33°48' E 131°06'0 0.1
2017-Nov-28 07:56N 33°48' E 131°06'0 0.0
2017-Nov-28 07:26N 33°48' E 131°06'0 0.3
2017-Nov-28 07:01N 33°48' E 131°06'0 0.2
2017-Nov-28 06:29N 33°48' E 131°05'0 0.0
2017-Nov-28 05:59N 33°48' E 131°05'0 0.1
2017-Nov-28 05:29N 33°48' E 131°05'4 4.4
2017-Nov-28 04:30N 33°47' E 131°00'1 1.5
2017-Nov-28 03:58N 33°46' E 130°60'0 0.0
2017-Nov-28 03:28N 33°46' E 130°60'0 0.0
2017-Nov-28 02:58N 33°46' E 130°60'0 0.0
2017-Nov-28 02:28N 33°46' E 130°60'0 0.0
2017-Nov-28 01:55N 33°46' E 130°60'0 0.1
2017-Nov-28 01:28N 33°46' E 130°60'0 0.0
2017-Nov-28 00:55N 33°46' E 130°60'0 0.0
2017-Nov-28 00:22N 33°46' E 130°60'0 0.0
2017-Nov-27 23:58N 33°46' E 130°60'0 0.0
2017-Nov-27 23:25N 33°46' E 130°60'0 0.0
2017-Nov-27 22:58N 33°46' E 130°60'0 0.0
2017-Nov-27 22:28N 33°46' E 130°60'0 0.0
2017-Nov-27 21:58N 33°46' E 130°60'0 0.0
2017-Nov-27 21:28N 33°46' E 130°60'0 0.0
2017-Nov-27 20:58N 33°46' E 130°60'0 0.0
2017-Nov-27 20:28N 33°46' E 130°60'0 0.0
2017-Nov-27 19:58N 33°46' E 130°60'0 0.0
2017-Nov-27 19:28N 33°46' E 130°60'0 0.0
2017-Nov-27 18:58N 33°46' E 130°60'0 0.0
2017-Nov-27 18:28N 33°46' E 130°60'0 0.0
2017-Nov-27 17:58N 33°46' E 130°60'0 0.0
2017-Nov-27 17:28N 33°46' E 130°60'0 0.0
2017-Nov-27 16:58N 33°46' E 130°60'0 0.0
2017-Nov-27 16:28N 33°46' E 130°60'0 0.0
2017-Nov-27 15:58N 33°46' E 130°60'0 0.0
2017-Nov-27 15:25N 33°46' E 130°60'0 0.0
2017-Nov-27 14:58N 33°46' E 130°60'0 0.0
2017-Nov-27 14:28N 33°46' E 130°60'0 0.0
2017-Nov-27 13:58N 33°46' E 130°60'0 0.0
2017-Nov-27 13:25N 33°46' E 130°60'0 0.4
2017-Nov-27 13:00N 33°46' E 131°00'4 8.2
2017-Nov-27 12:30N 33°49' E 131°03'612.1
2017-Nov-27 12:00N 33°56' E 131°03'5 9.8
2017-Nov-27 11:30N 33°58' E 130°58'5 9.5
2017-Nov-27 11:00N 33°55' E 130°53'611.2
2017-Nov-27 10:30N 33°58' E 130°47'612.1
2017-Nov-27 10:00N 33°57' E 130°40'612.3
2017-Nov-27 09:30N 33°56' E 130°33'612.2
2017-Nov-27 09:01N 33°53' E 130°27'612.3
2017-Nov-27 08:31N 33°48' E 130°22'612.0
2017-Nov-27 08:01N 33°44' E 130°17'5 9.5
2017-Nov-27 07:30N 33°39' E 130°19'510.1
2017-Nov-27 07:00N 33°37' E 130°24'0 0.1
2017-Nov-27 06:30N 33°37' E 130°24'0 0.0
2017-Nov-27 06:00N 33°37' E 130°24'0 0.0
2017-Nov-27 05:28N 33°37' E 130°24'0 0.0
2017-Nov-27 05:01N 33°37' E 130°24'0 0.0
2017-Nov-27 04:31N 33°37' E 130°24'0 0.0
2017-Nov-27 04:01N 33°37' E 130°24'0 0.0
2017-Nov-27 03:28N 33°37' E 130°24'0 0.0
2017-Nov-27 02:58N 33°37' E 130°24'0 0.0
2017-Nov-27 02:31N 33°37' E 130°24'0 0.0
2017-Nov-27 01:58N 33°37' E 130°24'0 0.0
2017-Nov-27 01:28N 33°37' E 130°24'0 0.0
2017-Nov-27 00:58N 33°37' E 130°24'0 0.0
2017-Nov-27 00:28N 33°37' E 130°24'0 0.0
2017-Nov-27 00:01N 33°37' E 130°24'0 0.0
2017-Nov-26 23:31N 33°37' E 130°24'0 0.0
2017-Nov-26 23:01N 33°37' E 130°24'0 0.0
2017-Nov-26 22:31N 33°37' E 130°24'0 0.0
2017-Nov-26 22:01N 33°37' E 130°24'0 0.0
2017-Nov-26 21:31N 33°37' E 130°24'0 0.0
2017-Nov-26 21:01N 33°37' E 130°24'0 0.0
2017-Nov-26 20:31N 33°37' E 130°24'0 0.0
2017-Nov-26 20:01N 33°37' E 130°24'0 0.0
2017-Nov-26 19:30N 33°37' E 130°24'0 0.0
2017-Nov-26 19:01N 33°37' E 130°24'0 0.0
2017-Nov-26 18:30N 33°37' E 130°24'0 0.0
2017-Nov-26 18:01N 33°37' E 130°24'0 0.0
2017-Nov-26 17:31N 33°37' E 130°24'0 0.0
2017-Nov-26 17:00N 33°37' E 130°24'0 0.0
2017-Nov-26 16:31N 33°37' E 130°24'0 0.0
2017-Nov-26 16:00N 33°37' E 130°24'0 0.0
2017-Nov-26 15:31N 33°37' E 130°24'0 0.0
2017-Nov-26 15:00N 33°37' E 130°24'0 0.0
2017-Nov-26 14:31N 33°37' E 130°24'0 0.0
2017-Nov-26 14:01N 33°37' E 130°24'0 0.0
2017-Nov-26 13:31N 33°37' E 130°24'0 0.0
2017-Nov-26 13:01N 33°37' E 130°24'0 0.0
2017-Nov-26 12:28N 33°37' E 130°24'0 0.0
2017-Nov-26 12:01N 33°37' E 130°24'0 0.0
2017-Nov-26 11:30N 33°37' E 130°24'0 0.0
2017-Nov-26 11:01N 33°37' E 130°24'0 0.0
2017-Nov-26 10:30N 33°37' E 130°24'0 0.0
2017-Nov-26 10:00N 33°37' E 130°24'0 0.0
2017-Nov-26 09:31N 33°37' E 130°24'0 0.0
2017-Nov-26 09:01N 33°37' E 130°24'0 0.0
2017-Nov-26 08:30N 33°37' E 130°24'1 1.2
2017-Nov-26 08:00N 33°37' E 130°23'510.6
2017-Nov-26 07:30N 33°39' E 130°18'5 9.1
2017-Nov-26 07:00N 33°44' E 130°18'611.3
2017-Nov-26 06:30N 33°48' E 130°22'611.2
2017-Nov-26 06:00N 33°52' E 130°27'510.7
2017-Nov-26 05:30N 33°56' E 130°31'611.3
2017-Nov-26 05:00N 33°57' E 130°38'611.4
2017-Nov-26 04:30N 33°58' E 130°45'611.7
2017-Nov-26 04:00N 33°57' E 130°52'4 7.9
2017-Nov-26 03:31N 33°57' E 130°56'5 9.9
2017-Nov-26 03:01N 33°58' E 131°02'612.4
2017-Nov-26 02:31N 33°55' E 131°09'612.5
2017-Nov-26 02:01N 33°52' E 131°15'612.1
2017-Nov-26 01:31N 33°50' E 131°22'612.0
2017-Nov-26 01:01N 33°49' E 131°29'612.0
2017-Nov-26 00:30N 33°49' E 131°37'612.0
2017-Nov-26 00:00N 33°48' E 131°44'712.1
2017-Nov-25 23:27N 33°46' E 131°52'511.7
2017-Nov-25 23:01N 33°45' E 131°58'611.7
2017-Nov-25 22:31N 33°47' E 132°05'611.8
2017-Nov-25 22:00N 33°49' E 132°11'1212.0
2017-Nov-25 20:59N 33°51' E 132°26'612.3
2017-Nov-25 20:30N 33°53' E 132°32'612.3
2017-Nov-25 20:00N 33°56' E 132°39'612.3
2017-Nov-25 19:30N 34°00' E 132°44'9010.8
2017-Nov-25 11:14N 34°27' E 134°28'311.5
2017-Nov-25 11:01N 34°28' E 134°31'611.6
2017-Nov-25 10:30N 34°30' E 134°37'611.3
2017-Nov-25 10:01N 34°32' E 134°43'611.1
2017-Nov-25 09:31N 34°34' E 134°50'510.2
2017-Nov-25 09:00N 34°36' E 134°55'510.1
2017-Nov-25 08:31N 34°37' E 135°01'510.2
2017-Nov-25 08:00N 34°36' E 135°07'611.4
2017-Nov-25 07:31N 34°36' E 135°14'611.3
2017-Nov-25 07:01N 34°37' E 135°21'5 9.4
2017-Nov-25 06:31N 34°38' E 135°27'2 3.5
2017-Nov-25 06:00N 34°38' E 135°29'0 0.0
2017-Nov-25 05:31N 34°38' E 135°29'0 0.0
2017-Nov-25 05:01N 34°38' E 135°29'0 0.0
2017-Nov-25 04:31N 34°38' E 135°29'0 0.0
2017-Nov-25 03:59N 34°38' E 135°29'0 0.0
2017-Nov-25 03:29N 34°38' E 135°29'0 0.0
2017-Nov-24 22:59N 34°38' E 135°29'1 2.1
2017-Nov-24 22:30N 34°38' E 135°28'3 6.5
2017-Nov-24 22:00N 34°38' E 135°24'1 1.0
2017-Nov-24 20:40N 34°37' E 135°23'0 0.0
2017-Nov-24 20:16N 34°37' E 135°23'0 0.0
2017-Nov-24 19:58N 34°37' E 135°23'0 0.0
2017-Nov-24 19:28N 34°37' E 135°23'0 0.0
2017-Nov-24 18:58N 34°37' E 135°23'0 0.0
2017-Nov-24 18:22N 34°37' E 135°23'0 0.0
2017-Nov-24 17:58N 34°37' E 135°23'0 0.1
2017-Nov-24 17:22N 34°37' E 135°23'0 0.0
2017-Nov-24 16:58N 34°37' E 135°23'0 0.0
2017-Nov-24 16:28N 34°37' E 135°23'0 0.0
2017-Nov-24 15:52N 34°37' E 135°23'0 0.0
2017-Nov-24 15:28N 34°37' E 135°23'0 0.1
2017-Nov-24 14:58N 34°37' E 135°23'0 0.1
2017-Nov-24 14:28N 34°37' E 135°23'0 0.0
2017-Nov-24 13:58N 34°37' E 135°23'0 0.0
2017-Nov-24 13:28N 34°37' E 135°23'0 0.0
2017-Nov-24 12:46N 34°37' E 135°23'0 0.0
2017-Nov-24 12:16N 34°37' E 135°23'0 0.0
2017-Nov-24 11:58N 34°37' E 135°23'0 0.0
2017-Nov-24 10:46N 34°37' E 135°23'0 0.0
2017-Nov-24 10:22N 34°37' E 135°23'0 0.1
2017-Nov-24 09:52N 34°37' E 135°23'0 0.1
2017-Nov-24 09:16N 34°37' E 135°23'0 0.0
2017-Nov-24 08:58N 34°37' E 135°23'0 0.0
2017-Nov-24 08:28N 34°37' E 135°23'0 0.0
2017-Nov-24 07:58N 34°37' E 135°23'0 0.0
2017-Nov-24 07:22N 34°37' E 135°23'0 0.1
2017-Nov-24 06:46N 34°37' E 135°23'0 0.0
2017-Nov-24 06:22N 34°37' E 135°23'0 0.0
2017-Nov-24 05:52N 34°37' E 135°23'0 0.0
2017-Nov-24 05:28N 34°37' E 135°23'0 0.0
2017-Nov-24 04:52N 34°37' E 135°23'0 0.0
2017-Nov-24 04:30N 34°37' E 135°23'1 1.0
2017-Nov-24 04:00N 34°37' E 135°23'611.3
2017-Nov-24 03:30N 34°35' E 135°16'612.3
2017-Nov-24 03:00N 34°35' E 135°09'510.6
2017-Nov-24 02:30N 34°36' E 135°02'  
Track history (hours):
 
Tides and Currents Weather Stations Pressure Air Temp Water Temp Dewpoint Dewpoint Depression Visibility Wind Speed Wind Dir Waves Ship Positions

Ryukaku

Last reported at 2017-Nov-30 05:32 UTC. Time now 2017-Dec-18 22:36 UTC.
Position N 35°01' E 140°11'.
Warning: this ship's position is 18 days out of date.

Length 74 m; draft 4.2 m.

Type: Cargo ship. MMSI: 431000913.

Date/timePositionNaut miles runAvg speedWind from/ knotsBaromVisibWave heightAir tempDewpointWater temp
2017-Nov-30 05:32N 35°01' E 140°11'311.9
2017-Nov-30 05:16N 34°59' E 140°08'2011.6
2017-Nov-30 03:32N 34°51' E 139°46'112.0
2017-Nov-30 03:27N 34°51' E 139°44'511.7
2017-Nov-30 03:00N 34°51' E 139°38'910.8
2017-Nov-30 02:11N 34°50' E 139°27'210.9
2017-Nov-30 02:00N 34°50' E 139°25'812.1
2017-Nov-30 01:22N 34°47' E 139°16'512.4
2017-Nov-30 00:59N 34°44' E 139°12'612.4
2017-Nov-30 00:28N 34°40' E 139°05'812.9
2017-Nov-29 23:53N 34°36' E 138°58'613.0
2017-Nov-29 23:27N 34°35' E 138°51'813.0
2017-Nov-29 22:50N 34°34' E 138°41'613.6
2017-Nov-29 22:22N 34°34' E 138°33'513.7
2017-Nov-29 21:59N 34°33' E 138°27'813.0
2017-Nov-29 21:21N 34°33' E 138°17'32410.1
2017-Nov-28 13:08N 33°25' E 131°55'912.2
2017-Nov-28 12:23N 33°33' E 131°48'512.5
2017-Nov-28 12:00N 33°36' E 131°45'612.3
2017-Nov-28 11:30N 33°41' E 131°40'612.3
2017-Nov-28 11:00N 33°43' E 131°33'611.9
2017-Nov-28 10:30N 33°44' E 131°26'611.7
2017-Nov-28 10:00N 33°45' E 131°20'611.4
2017-Nov-28 09:30N 33°47' E 131°13'611.3
2017-Nov-28 09:00N 33°48' E 131°06'0 0.7
2017-Nov-28 08:29N 33°48' E 131°06'0 0.1
2017-Nov-28 07:56N 33°48' E 131°06'0 0.0
2017-Nov-28 07:26N 33°48' E 131°06'0 0.3
2017-Nov-28 07:01N 33°48' E 131°06'0 0.2
2017-Nov-28 06:29N 33°48' E 131°05'0 0.0
2017-Nov-28 05:59N 33°48' E 131°05'0 0.1
2017-Nov-28 05:29N 33°48' E 131°05'4 4.4
2017-Nov-28 04:30N 33°47' E 131°00'1 1.5
2017-Nov-28 03:58N 33°46' E 130°60'0 0.0
2017-Nov-28 03:28N 33°46' E 130°60'0 0.0
2017-Nov-28 02:58N 33°46' E 130°60'0 0.0
2017-Nov-28 02:28N 33°46' E 130°60'0 0.0
2017-Nov-28 01:55N 33°46' E 130°60'0 0.1
2017-Nov-28 01:28N 33°46' E 130°60'0 0.0
2017-Nov-28 00:55N 33°46' E 130°60'0 0.0
2017-Nov-28 00:22N 33°46' E 130°60'0 0.0
2017-Nov-27 23:58N 33°46' E 130°60'0 0.0
2017-Nov-27 23:25N 33°46' E 130°60'0 0.0
2017-Nov-27 22:58N 33°46' E 130°60'0 0.0
2017-Nov-27 22:28N 33°46' E 130°60'0 0.0
2017-Nov-27 21:58N 33°46' E 130°60'0 0.0
2017-Nov-27 21:28N 33°46' E 130°60'0 0.0
2017-Nov-27 20:58N 33°46' E 130°60'0 0.0
2017-Nov-27 20:28N 33°46' E 130°60'0 0.0
2017-Nov-27 19:58N 33°46' E 130°60'0 0.0
2017-Nov-27 19:28N 33°46' E 130°60'0 0.0
2017-Nov-27 18:58N 33°46' E 130°60'0 0.0
2017-Nov-27 18:28N 33°46' E 130°60'0 0.0
2017-Nov-27 17:58N 33°46' E 130°60'0 0.0
2017-Nov-27 17:28N 33°46' E 130°60'0 0.0
2017-Nov-27 16:58N 33°46' E 130°60'0 0.0
2017-Nov-27 16:28N 33°46' E 130°60'0 0.0
2017-Nov-27 15:58N 33°46' E 130°60'0 0.0
2017-Nov-27 15:25N 33°46' E 130°60'0 0.0
2017-Nov-27 14:58N 33°46' E 130°60'0 0.0
2017-Nov-27 14:28N 33°46' E 130°60'0 0.0
2017-Nov-27 13:58N 33°46' E 130°60'0 0.0
2017-Nov-27 13:25N 33°46' E 130°60'0 0.4
2017-Nov-27 13:00N 33°46' E 131°00'4 8.2
2017-Nov-27 12:30N 33°49' E 131°03'612.1
2017-Nov-27 12:00N 33°56' E 131°03'5 9.8
2017-Nov-27 11:30N 33°58' E 130°58'5 9.5
2017-Nov-27 11:00N 33°55' E 130°53'611.2
2017-Nov-27 10:30N 33°58' E 130°47'612.1
2017-Nov-27 10:00N 33°57' E 130°40'612.3
2017-Nov-27 09:30N 33°56' E 130°33'612.2
2017-Nov-27 09:01N 33°53' E 130°27'612.3
2017-Nov-27 08:31N 33°48' E 130°22'612.0
2017-Nov-27 08:01N 33°44' E 130°17'5 9.5
2017-Nov-27 07:30N 33°39' E 130°19'510.1
2017-Nov-27 07:00N 33°37' E 130°24'0 0.1
2017-Nov-27 06:30N 33°37' E 130°24'0 0.0
2017-Nov-27 06:00N 33°37' E 130°24'0 0.0
2017-Nov-27 05:28N 33°37' E 130°24'0 0.0
2017-Nov-27 05:01N 33°37' E 130°24'0 0.0
2017-Nov-27 04:31N 33°37' E 130°24'0 0.0
2017-Nov-27 04:01N 33°37' E 130°24'0 0.0
2017-Nov-27 03:28N 33°37' E 130°24'0 0.0
2017-Nov-27 02:58N 33°37' E 130°24'0 0.0
2017-Nov-27 02:31N 33°37' E 130°24'0 0.0
2017-Nov-27 01:58N 33°37' E 130°24'0 0.0
2017-Nov-27 01:28N 33°37' E 130°24'0 0.0
2017-Nov-27 00:58N 33°37' E 130°24'0 0.0
2017-Nov-27 00:28N 33°37' E 130°24'0 0.0
2017-Nov-27 00:01N 33°37' E 130°24'0 0.0
2017-Nov-26 23:31N 33°37' E 130°24'0 0.0
2017-Nov-26 23:01N 33°37' E 130°24'0 0.0
2017-Nov-26 22:31N 33°37' E 130°24'0 0.0
2017-Nov-26 22:01N 33°37' E 130°24'0 0.0
2017-Nov-26 21:31N 33°37' E 130°24'0 0.0
2017-Nov-26 21:01N 33°37' E 130°24'0 0.0
2017-Nov-26 20:31N 33°37' E 130°24'0 0.0
2017-Nov-26 20:01N 33°37' E 130°24'0 0.0
2017-Nov-26 19:30N 33°37' E 130°24'0 0.0
2017-Nov-26 19:01N 33°37' E 130°24'0 0.0
2017-Nov-26 18:30N 33°37' E 130°24'0 0.0
2017-Nov-26 18:01N 33°37' E 130°24'0 0.0
2017-Nov-26 17:31N 33°37' E 130°24'0 0.0
2017-Nov-26 17:00N 33°37' E 130°24'0 0.0
2017-Nov-26 16:31N 33°37' E 130°24'0 0.0
2017-Nov-26 16:00N 33°37' E 130°24'0 0.0
2017-Nov-26 15:31N 33°37' E 130°24'0 0.0
2017-Nov-26 15:00N 33°37' E 130°24'0 0.0
2017-Nov-26 14:31N 33°37' E 130°24'0 0.0
2017-Nov-26 14:01N 33°37' E 130°24'0 0.0
2017-Nov-26 13:31N 33°37' E 130°24'0 0.0
2017-Nov-26 13:01N 33°37' E 130°24'0 0.0
2017-Nov-26 12:28N 33°37' E 130°24'0 0.0
2017-Nov-26 12:01N 33°37' E 130°24'0 0.0
2017-Nov-26 11:30N 33°37' E 130°24'0 0.0
2017-Nov-26 11:01N 33°37' E 130°24'0 0.0
2017-Nov-26 10:30N 33°37' E 130°24'0 0.0
2017-Nov-26 10:00N 33°37' E 130°24'0 0.0
2017-Nov-26 09:31N 33°37' E 130°24'0 0.0
2017-Nov-26 09:01N 33°37' E 130°24'0 0.0
2017-Nov-26 08:30N 33°37' E 130°24'1 1.2
2017-Nov-26 08:00N 33°37' E 130°23'510.6
2017-Nov-26 07:30N 33°39' E 130°18'5 9.1
2017-Nov-26 07:00N 33°44' E 130°18'611.3
2017-Nov-26 06:30N 33°48' E 130°22'611.2
2017-Nov-26 06:00N 33°52' E 130°27'510.7
2017-Nov-26 05:30N 33°56' E 130°31'611.3
2017-Nov-26 05:00N 33°57' E 130°38'611.4
2017-Nov-26 04:30N 33°58' E 130°45'611.7
2017-Nov-26 04:00N 33°57' E 130°52'4 7.9
2017-Nov-26 03:31N 33°57' E 130°56'5 9.9
2017-Nov-26 03:01N 33°58' E 131°02'612.4
2017-Nov-26 02:31N 33°55' E 131°09'612.5
2017-Nov-26 02:01N 33°52' E 131°15'612.1
2017-Nov-26 01:31N 33°50' E 131°22'612.0
2017-Nov-26 01:01N 33°49' E 131°29'612.0
2017-Nov-26 00:30N 33°49' E 131°37'612.0
2017-Nov-26 00:00N 33°48' E 131°44'712.1
2017-Nov-25 23:27N 33°46' E 131°52'511.7
2017-Nov-25 23:01N 33°45' E 131°58'611.7
2017-Nov-25 22:31N 33°47' E 132°05'611.8
2017-Nov-25 22:00N 33°49' E 132°11'1212.0
2017-Nov-25 20:59N 33°51' E 132°26'612.3
2017-Nov-25 20:30N 33°53' E 132°32'612.3
2017-Nov-25 20:00N 33°56' E 132°39'612.3
2017-Nov-25 19:30N 34°00' E 132°44'9010.8
2017-Nov-25 11:14N 34°27' E 134°28'311.5
2017-Nov-25 11:01N 34°28' E 134°31'611.6
2017-Nov-25 10:30N 34°30' E 134°37'611.3
2017-Nov-25 10:01N 34°32' E 134°43'611.1
2017-Nov-25 09:31N 34°34' E 134°50'510.2
2017-Nov-25 09:00N 34°36' E 134°55'510.1
2017-Nov-25 08:31N 34°37' E 135°01'510.2
2017-Nov-25 08:00N 34°36' E 135°07'611.4
2017-Nov-25 07:31N 34°36' E 135°14'611.3
2017-Nov-25 07:01N 34°37' E 135°21'5 9.4
2017-Nov-25 06:31N 34°38' E 135°27'2 3.5
2017-Nov-25 06:00N 34°38' E 135°29'0 0.0
2017-Nov-25 05:31N 34°38' E 135°29'0 0.0
2017-Nov-25 05:01N 34°38' E 135°29'0 0.0
2017-Nov-25 04:31N 34°38' E 135°29'0 0.0
2017-Nov-25 03:59N 34°38' E 135°29'0 0.0
2017-Nov-25 03:29N 34°38' E 135°29'0 0.0
2017-Nov-24 22:59N 34°38' E 135°29'1 2.1
2017-Nov-24 22:30N 34°38' E 135°28'3 6.5
2017-Nov-24 22:00N 34°38' E 135°24'1 1.0
2017-Nov-24 20:40N 34°37' E 135°23'0 0.0
2017-Nov-24 20:16N 34°37' E 135°23'0 0.0
2017-Nov-24 19:58N 34°37' E 135°23'0 0.0
2017-Nov-24 19:28N 34°37' E 135°23'0 0.0
2017-Nov-24 18:58N 34°37' E 135°23'0 0.0
2017-Nov-24 18:22N 34°37' E 135°23'0 0.0
2017-Nov-24 17:58N 34°37' E 135°23'0 0.1
2017-Nov-24 17:22N 34°37' E 135°23'0 0.0
2017-Nov-24 16:58N 34°37' E 135°23'0 0.0
2017-Nov-24 16:28N 34°37' E 135°23'0 0.0
2017-Nov-24 15:52N 34°37' E 135°23'0 0.0
2017-Nov-24 15:28N 34°37' E 135°23'0 0.1
2017-Nov-24 14:58N 34°37' E 135°23'0 0.1
2017-Nov-24 14:28N 34°37' E 135°23'0 0.0
2017-Nov-24 13:58N 34°37' E 135°23'0 0.0
2017-Nov-24 13:28N 34°37' E 135°23'0 0.0
2017-Nov-24 12:46N 34°37' E 135°23'0 0.0
2017-Nov-24 12:16N 34°37' E 135°23'0 0.0
2017-Nov-24 11:58N 34°37' E 135°23'0 0.0
2017-Nov-24 10:46N 34°37' E 135°23'0 0.0
2017-Nov-24 10:22N 34°37' E 135°23'0 0.1
2017-Nov-24 09:52N 34°37' E 135°23'0 0.1
2017-Nov-24 09:16N 34°37' E 135°23'0 0.0
2017-Nov-24 08:58N 34°37' E 135°23'0 0.0
2017-Nov-24 08:28N 34°37' E 135°23'0 0.0
2017-Nov-24 07:58N 34°37' E 135°23'0 0.0
2017-Nov-24 07:22N 34°37' E 135°23'0 0.1
2017-Nov-24 06:46N 34°37' E 135°23'0 0.0
2017-Nov-24 06:22N 34°37' E 135°23'0 0.0
2017-Nov-24 05:52N 34°37' E 135°23'0 0.0
2017-Nov-24 05:28N 34°37' E 135°23'0 0.0
2017-Nov-24 04:52N 34°37' E 135°23'0 0.0
2017-Nov-24 04:30N 34°37' E 135°23'1 1.0
2017-Nov-24 04:00N 34°37' E 135°23'611.3
2017-Nov-24 03:30N 34°35' E 135°16'612.3
2017-Nov-24 03:00N 34°35' E 135°09'510.6
2017-Nov-24 02:30N 34°36' E 135°02'  

Dump ship's entire track history